Time;durP1;ratioP1;P1;durP2;ratioP2;P2;SDS_P1;SDS_P2;PMS_P1;PMS_P2;Temp;Humidity;BMP_temperature;BMP_pressure;BME280_temperature;BME280_humidity;BME280_pressure;Samples;Min_cycle;Max_cycle;Signal;HPM_P1;HPM_P2
2023/08/20 00:02:10;;;;;;;9.23;5.10;;;;;;;;;;5068296;28;20172;-49
2023/08/20 00:04:37;;;;;;;12.03;4.80;;;;;;;;;;5068057;28;20177;-50
2023/08/20 00:07:04;;;;;;;11.83;5.93;;;;;;;;;;5069349;28;20203;-49
2023/08/20 00:09:30;;;;;;;12.93;4.17;;;;;;;;;;5070193;28;20243;-52
2023/08/20 00:11:56;;;;;;;11.43;5.10;;;;;;;;;;5068853;28;20220;-53
2023/08/20 00:14:42;;;;;;;10.07;4.90;;;;;;;;;;5070654;28;20411;-50
2023/08/20 00:17:09;;;;;;;12.17;4.63;;;;;;;;;;5068518;28;20176;-53
2023/08/20 00:19:35;;;;;;;9.93;4.40;;;;;;;;;;5068201;28;20374;-54
2023/08/20 00:22:01;;;;;;;7.90;4.30;;;;;;;;;;5068780;28;20183;-53
2023/08/20 00:24:27;;;;;;;16.03;6.03;;;;;;;;;;5067514;28;20471;-52
2023/08/20 00:26:53;;;;;;;10.63;4.47;;;;;;;;;;5067032;28;20177;-51
2023/08/20 00:29:19;;;;;;;11.43;4.93;;;;;;;;;;5066646;28;20398;-55
2023/08/20 00:31:44;;;;;;;20.33;5.97;;;;;;;;;;5067776;28;20553;-53
2023/08/20 00:34:10;;;;;;;11.60;5.70;;;;;;;;;;5068363;28;20169;-52
2023/08/20 00:36:36;;;;;;;12.77;4.90;;;;;;;;;;5069399;28;20179;-55
2023/08/20 00:39:03;;;;;;;11.90;4.93;;;;;;;;;;5069751;28;20207;-51
2023/08/20 00:41:29;;;;;;;13.33;5.50;;;;;;;;;;5069942;28;20177;-55
2023/08/20 00:43:55;;;;;;;9.07;4.70;;;;;;;;;;5071028;28;20241;-50
2023/08/20 00:46:21;;;;;;;11.33;6.17;;;;;;;;;;5070937;28;20169;-50
2023/08/20 00:48:47;;;;;;;14.53;5.83;;;;;;;;;;5069189;28;20207;-53
2023/08/20 00:51:13;;;;;;;14.73;5.47;;;;;;;;;;5070492;28;20179;-48
2023/08/20 00:53:39;;;;;;;13.20;6.50;;;;;;;;;;5071802;28;20219;-48
2023/08/20 00:56:05;;;;;;;13.03;5.67;;;;;;;;;;5071388;28;20173;-56
2023/08/20 00:58:31;;;;;;;12.70;5.00;;;;;;;;;;5070820;28;20413;-48
2023/08/20 01:00:57;;;;;;;10.00;5.40;;;;;;;;;;5068617;28;20241;-50
2023/08/20 01:03:23;;;;;;;8.67;5.00;;;;;;;;;;5066225;28;20458;-55
2023/08/20 01:05:51;;;;;;;14.20;6.03;;;;;;;;;;5067515;28;20291;-49
2023/08/20 01:08:17;;;;;;;9.70;5.60;;;;;;;;;;5067509;28;20333;-51
2023/08/20 01:11:02;;;;;;;15.27;5.73;;;;;;;;;;5067310;28;20172;-50
2023/08/20 01:13:28;;;;;;;10.47;5.60;;;;;;;;;;5068105;28;20367;-48
2023/08/20 01:15:54;;;;;;;14.13;5.80;;;;;;;;;;5069738;28;20164;-54
2023/08/20 01:18:20;;;;;;;8.30;4.17;;;;;;;;;;5069409;28;20180;-49
2023/08/20 01:20:56;;;;;;;11.50;5.20;;;;;;;;;;5068614;28;20428;-51
2023/08/20 01:23:22;;;;;;;12.80;5.67;;;;;;;;;;5067684;28;20172;-51
2023/08/20 01:25:55;;;;;;;12.10;5.13;;;;;;;;;;5070394;28;20537;-49
2023/08/20 01:28:24;;;;;;;10.83;5.40;;;;;;;;;;5068953;28;20211;-48
2023/08/20 01:30:51;;;;;;;14.13;5.60;;;;;;;;;;5069731;28;20235;-52
2023/08/20 01:33:19;;;;;;;11.43;5.87;;;;;;;;;;5070702;28;20196;-51
2023/08/20 01:35:45;;;;;;;12.60;5.43;;;;;;;;;;5070130;28;20173;-51
2023/08/20 01:38:11;;;;;;;8.33;5.40;;;;;;;;;;5072154;28;20260;-54
2023/08/20 01:40:37;;;;;;;10.80;5.27;;;;;;;;;;5071698;28;20180;-48
2023/08/20 01:43:03;;;;;;;10.03;5.47;;;;;;;;;;5071993;28;20185;-50
2023/08/20 01:45:29;;;;;;;10.27;5.30;;;;;;;;;;5071572;28;20176;-52
2023/08/20 01:47:55;;;;;;;9.00;5.20;;;;;;;;;;5071450;28;20196;-53
2023/08/20 01:50:21;;;;;;;11.27;5.27;;;;;;;;;;5071358;28;20169;-49
2023/08/20 01:52:47;;;;;;;9.07;5.87;;;;;;;;;;5071590;28;20608;-53
2023/08/20 01:55:13;;;;;;;7.30;5.47;;;;;;;;;;5070770;28;20271;-50
2023/08/20 01:57:39;;;;;;;11.40;4.97;;;;;;;;;;5070941;28;20242;-53
2023/08/20 02:00:06;;;;;;;13.90;5.53;;;;;;;;;;5069644;28;20627;-54
2023/08/20 02:02:34;;;;;;;10.00;5.00;;;;;;;;;;5068934;28;20379;-50
2023/08/20 02:05:00;;;;;;;13.53;6.13;;;;;;;;;;5067930;28;20387;-53
2023/08/20 02:07:26;;;;;;;10.43;5.90;;;;;;;;;;5070397;28;20466;-50
2023/08/20 02:09:52;;;;;;;12.73;5.87;;;;;;;;;;5071159;28;20208;-50
2023/08/20 02:12:18;;;;;;;12.03;6.03;;;;;;;;;;5069579;28;20528;-52
2023/08/20 02:14:45;;;;;;;10.20;5.83;;;;;;;;;;5069544;28;20231;-52
2023/08/20 02:17:12;;;;;;;12.93;5.57;;;;;;;;;;5071034;28;20545;-50
2023/08/20 02:19:38;;;;;;;8.00;5.27;;;;;;;;;;5071554;28;20401;-50
2023/08/20 02:22:04;;;;;;;11.97;6.17;;;;;;;;;;5071074;28;20223;-49
2023/08/20 02:24:30;;;;;;;7.50;4.57;;;;;;;;;;5075091;28;20176;-52
2023/08/20 02:26:57;;;;;;;10.57;4.87;;;;;;;;;;5072920;28;20246;-53
2023/08/20 02:29:23;;;;;;;8.70;5.30;;;;;;;;;;5071713;28;20248;-48
2023/08/20 02:31:49;;;;;;;13.43;6.23;;;;;;;;;;5071541;28;20581;-53
2023/08/20 02:34:15;;;;;;;13.03;5.70;;;;;;;;;;5071414;28;20315;-52
2023/08/20 02:36:41;;;;;;;12.53;5.53;;;;;;;;;;5071866;28;20306;-52
2023/08/20 02:39:07;;;;;;;10.17;5.87;;;;;;;;;;5071420;28;20301;-54
2023/08/20 02:41:37;;;;;;;10.43;5.30;;;;;;;;;;5072658;28;20172;-53
2023/08/20 02:44:03;;;;;;;11.27;5.20;;;;;;;;;;5072244;28;20490;-51
2023/08/20 02:46:29;;;;;;;7.80;4.43;;;;;;;;;;5072733;28;20168;-54
2023/08/20 02:48:55;;;;;;;11.87;5.70;;;;;;;;;;5073799;28;20745;-52
2023/08/20 02:51:22;;;;;;;11.37;5.90;;;;;;;;;;5074562;28;20559;-51
2023/08/20 02:53:48;;;;;;;11.03;5.73;;;;;;;;;;5075155;28;20181;-47
2023/08/20 02:56:14;;;;;;;8.27;5.13;;;;;;;;;;5074314;28;20529;-51
2023/08/20 02:58:40;;;;;;;7.30;4.83;;;;;;;;;;5075099;28;20191;-49
2023/08/20 03:01:06;;;;;;;12.73;5.90;;;;;;;;;;5074134;28;20168;-51
2023/08/20 03:03:32;;;;;;;9.73;5.33;;;;;;;;;;5073117;28;20172;-54
2023/08/20 03:05:58;;;;;;;9.70;5.63;;;;;;;;;;5073252;28;20180;-52
2023/08/20 03:08:24;;;;;;;8.80;5.20;;;;;;;;;;5072898;28;20215;-55
2023/08/20 03:10:50;;;;;;;10.87;6.90;;;;;;;;;;5073339;28;20177;-54
2023/08/20 03:13:16;;;;;;;12.33;5.57;;;;;;;;;;5073510;28;20177;-54
2023/08/20 03:15:42;;;;;;;9.47;5.90;;;;;;;;;;5073702;28;20414;-52
2023/08/20 03:18:09;;;;;;;10.93;5.70;;;;;;;;;;5071628;28;20267;-50
2023/08/20 03:20:35;;;;;;;10.40;5.93;;;;;;;;;;5071922;28;20176;-48
2023/08/20 03:26:04;;;;;;;6.97;4.73;;;;;;;;;;5071873;28;20175;-51
2023/08/20 03:28:30;;;;;;;9.60;5.20;;;;;;;;;;5070927;28;20551;-50
2023/08/20 03:31:00;;;;;;;9.20;4.93;;;;;;;;;;5071178;28;20323;-49
2023/08/20 03:33:26;;;;;;;6.33;4.53;;;;;;;;;;5071179;28;20553;-49
2023/08/20 03:35:53;;;;;;;9.97;4.90;;;;;;;;;;5072826;28;20161;-50
2023/08/20 03:38:19;;;;;;;8.67;5.27;;;;;;;;;;5072742;28;20207;-53
2023/08/20 03:40:45;;;;;;;13.73;5.80;;;;;;;;;;5072763;28;20606;-53
2023/08/20 03:43:12;;;;;;;9.07;4.97;;;;;;;;;;5071627;28;20169;-48
2023/08/20 03:45:38;;;;;;;7.90;5.53;;;;;;;;;;5071246;28;20180;-49
2023/08/20 03:48:04;;;;;;;11.73;5.40;;;;;;;;;;5071431;28;20200;-53
2023/08/20 03:50:30;;;;;;;9.27;4.80;;;;;;;;;;5070887;28;20262;-50
2023/08/20 03:52:56;;;;;;;8.20;4.60;;;;;;;;;;5072442;28;20503;-53
2023/08/20 03:55:22;;;;;;;9.40;4.80;;;;;;;;;;5071816;28;20520;-51
2023/08/20 03:57:48;;;;;;;7.67;4.47;;;;;;;;;;5072905;28;20183;-54
2023/08/20 04:00:15;;;;;;;8.50;4.93;;;;;;;;;;5074143;28;20173;-50
2023/08/20 04:02:41;;;;;;;9.07;4.87;;;;;;;;;;5072214;28;20208;-50
2023/08/20 04:05:08;;;;;;;9.00;5.23;;;;;;;;;;5071771;28;20208;-49
2023/08/20 04:07:34;;;;;;;10.03;5.77;;;;;;;;;;5070797;28;20164;-53
2023/08/20 04:10:00;;;;;;;13.47;6.27;;;;;;;;;;5070962;28;20238;-50
2023/08/20 04:12:26;;;;;;;15.97;6.40;;;;;;;;;;5072026;28;20267;-48
2023/08/20 04:14:52;;;;;;;10.23;6.27;;;;;;;;;;5070156;28;20169;-49
2023/08/20 04:17:19;;;;;;;16.40;7.80;;;;;;;;;;5071459;28;20273;-53
2023/08/20 04:19:46;;;;;;;8.30;5.67;;;;;;;;;;5072090;28;20177;-52
2023/08/20 04:22:12;;;;;;;7.80;5.40;;;;;;;;;;5070293;28;20548;-53
2023/08/20 04:24:38;;;;;;;10.30;6.00;;;;;;;;;;5069951;28;20254;-51
2023/08/20 04:27:04;;;;;;;9.93;5.93;;;;;;;;;;5069588;28;20499;-55
2023/08/20 04:29:30;;;;;;;9.23;5.97;;;;;;;;;;5069844;28;20600;-50
2023/08/20 04:31:56;;;;;;;10.00;5.73;;;;;;;;;;5069834;28;20583;-50
2023/08/20 04:34:22;;;;;;;11.20;6.10;;;;;;;;;;5071319;28;20176;-50
2023/08/20 04:36:48;;;;;;;11.73;7.13;;;;;;;;;;5071019;28;20165;-52
2023/08/20 04:39:14;;;;;;;9.30;5.77;;;;;;;;;;5072540;28;20172;-50
2023/08/20 04:41:40;;;;;;;11.47;5.87;;;;;;;;;;5073005;28;20472;-50
2023/08/20 04:44:06;;;;;;;9.53;7.03;;;;;;;;;;5073253;28;20173;-50
2023/08/20 04:46:32;;;;;;;10.57;6.47;;;;;;;;;;5072174;28;20181;-50
2023/08/20 04:48:58;;;;;;;14.80;11.13;;;;;;;;;;5071377;28;20223;-50
2023/08/20 04:51:24;;;;;;;13.83;9.40;;;;;;;;;;5070654;28;20180;-48
2023/08/20 04:53:50;;;;;;;15.83;11.17;;;;;;;;;;5071785;28;20179;-48
2023/08/20 04:56:17;;;;;;;16.77;11.77;;;;;;;;;;5072186;28;20176;-52
2023/08/20 04:58:43;;;;;;;18.80;11.27;;;;;;;;;;5071722;28;20187;-50
2023/08/20 05:01:09;;;;;;;19.47;11.23;;;;;;;;;;5070842;28;20319;-50
2023/08/20 05:03:36;;;;;;;15.67;11.63;;;;;;;;;;5071559;28;20214;-50
2023/08/20 05:06:02;;;;;;;21.53;12.43;;;;;;;;;;5069976;28;20173;-50
2023/08/20 05:08:28;;;;;;;24.73;13.57;;;;;;;;;;5070695;28;20304;-52
2023/08/20 05:10:54;;;;;;;23.93;14.20;;;;;;;;;;5068729;28;20168;-50
2023/08/20 05:13:20;;;;;;;22.63;13.43;;;;;;;;;;5068787;28;20241;-50
2023/08/20 05:15:47;;;;;;;28.57;14.37;;;;;;;;;;5069491;28;20541;-52
2023/08/20 05:18:13;;;;;;;19.23;14.23;;;;;;;;;;5067973;28;20188;-51
2023/08/20 05:20:41;;;;;;;22.43;14.07;;;;;;;;;;5068085;28;20524;-52
2023/08/20 05:23:07;;;;;;;22.90;15.50;;;;;;;;;;5068373;28;20440;-50
2023/08/20 05:25:35;;;;;;;21.73;14.83;;;;;;;;;;5066711;28;20172;-48
2023/08/20 05:28:01;;;;;;;24.77;14.93;;;;;;;;;;5066801;28;20215;-53
2023/08/20 05:30:27;;;;;;;21.80;15.37;;;;;;;;;;5068380;28;20731;-54
2023/08/20 05:32:53;;;;;;;28.27;17.90;;;;;;;;;;5069222;28;20247;-52
2023/08/20 05:35:20;;;;;;;32.63;18.90;;;;;;;;;;5069935;28;20349;-52
2023/08/20 05:37:46;;;;;;;37.37;21.50;;;;;;;;;;5070584;28;20172;-54
2023/08/20 05:40:12;;;;;;;34.07;19.50;;;;;;;;;;5069881;28;20229;-52
2023/08/20 05:42:38;;;;;;;30.77;19.60;;;;;;;;;;5069542;28;20271;-51
2023/08/20 05:45:04;;;;;;;43.93;23.17;;;;;;;;;;5069612;28;20326;-52
2023/08/20 05:47:30;;;;;;;32.57;18.77;;;;;;;;;;5070192;28;20271;-48
2023/08/20 05:49:56;;;;;;;31.93;19.37;;;;;;;;;;5070105;28;20315;-53
2023/08/20 05:52:22;;;;;;;31.03;18.57;;;;;;;;;;5069194;28;20169;-55
2023/08/20 05:54:49;;;;;;;31.73;17.77;;;;;;;;;;5068594;28;20420;-51
2023/08/20 05:57:15;;;;;;;29.10;17.43;;;;;;;;;;5069723;28;20426;-52
2023/08/20 05:59:40;;;;;;;22.00;17.23;;;;;;;;;;5069753;28;20619;-51
2023/08/20 06:02:07;;;;;;;23.73;16.70;;;;;;;;;;5071131;28;20172;-49
2023/08/20 06:04:32;;;;;;;25.13;15.40;;;;;;;;;;5071260;28;20306;-50
2023/08/20 06:06:59;;;;;;;19.63;14.13;;;;;;;;;;5073190;28;20441;-54
2023/08/20 06:09:25;;;;;;;17.90;13.20;;;;;;;;;;5071844;28;20611;-53
2023/08/20 06:11:51;;;;;;;29.70;17.17;;;;;;;;;;5070574;28;20233;-52
2023/08/20 06:14:17;;;;;;;22.60;15.53;;;;;;;;;;5071401;28;20183;-54
2023/08/20 06:16:44;;;;;;;25.27;15.43;;;;;;;;;;5071687;28;20584;-50
2023/08/20 06:19:10;;;;;;;27.07;18.37;;;;;;;;;;5072426;28;20622;-51
2023/08/20 06:21:36;;;;;;;23.07;15.60;;;;;;;;;;5071107;28;20173;-53
2023/08/20 06:24:03;;;;;;;24.57;16.33;;;;;;;;;;5072171;28;20169;-52
2023/08/20 06:26:28;;;;;;;40.70;20.97;;;;;;;;;;5070890;28;20234;-50
2023/08/20 06:28:54;;;;;;;33.77;20.53;;;;;;;;;;5072640;28;20232;-52
2023/08/20 06:31:20;;;;;;;29.23;18.73;;;;;;;;;;5072920;28;20168;-50
2023/08/20 06:33:47;;;;;;;35.97;18.33;;;;;;;;;;5072511;28;20208;-51
2023/08/20 06:36:13;;;;;;;30.53;17.20;;;;;;;;;;5071154;28;20420;-52
2023/08/20 06:38:39;;;;;;;36.50;19.00;;;;;;;;;;5072593;28;20330;-53
2023/08/20 06:41:06;;;;;;;37.43;20.40;;;;;;;;;;5072107;28;20271;-53
2023/08/20 06:43:32;;;;;;;33.87;21.13;;;;;;;;;;5072977;28;20180;-49
2023/08/20 06:45:59;;;;;;;37.00;18.83;;;;;;;;;;5073643;28;20177;-50
2023/08/20 06:48:26;;;;;;;39.57;21.73;;;;;;;;;;5073179;28;20239;-53
2023/08/20 06:50:52;;;;;;;33.70;17.83;;;;;;;;;;5071765;28;20476;-51
2023/08/20 06:53:18;;;;;;;51.60;27.87;;;;;;;;;;5071151;28;20472;-53
2023/08/20 06:55:44;;;;;;;37.73;21.17;;;;;;;;;;5069500;28;20343;-51
2023/08/20 06:58:10;;;;;;;32.73;20.53;;;;;;;;;;5069290;28;20172;-54
2023/08/20 07:00:37;;;;;;;30.97;18.43;;;;;;;;;;5070432;28;20238;-53
2023/08/20 07:03:03;;;;;;;29.17;17.13;;;;;;;;;;5070695;28;20197;-53
2023/08/20 07:05:30;;;;;;;26.30;16.73;;;;;;;;;;5069292;28;20172;-54
2023/08/20 07:07:56;;;;;;;24.73;17.03;;;;;;;;;;5066012;28;20268;-50
2023/08/20 07:10:22;;;;;;;25.03;17.20;;;;;;;;;;5065424;28;20279;-54
2023/08/20 07:12:48;;;;;;;32.70;17.53;;;;;;;;;;5068316;28;20176;-50
2023/08/20 07:15:14;;;;;;;29.63;18.00;;;;;;;;;;5067733;28;20558;-53
2023/08/20 07:17:41;;;;;;;24.67;16.73;;;;;;;;;;5066813;28;20286;-53
2023/08/20 07:20:07;;;;;;;23.67;16.37;;;;;;;;;;5068463;28;20180;-54
2023/08/20 07:22:33;;;;;;;41.70;19.57;;;;;;;;;;5070728;28;20773;-50
2023/08/20 07:24:59;;;;;;;27.00;19.43;;;;;;;;;;5075925;28;20172;-50
2023/08/20 07:27:25;;;;;;;29.40;19.80;;;;;;;;;;5074226;28;20243;-50
2023/08/20 07:29:51;;;;;;;28.83;19.10;;;;;;;;;;5073557;28;20233;-53
2023/08/20 07:32:17;;;;;;;34.13;22.87;;;;;;;;;;5071472;28;20425;-52
2023/08/20 07:34:43;;;;;;;29.50;20.00;;;;;;;;;;5072741;28;20169;-52
2023/08/20 07:37:09;;;;;;;34.37;23.57;;;;;;;;;;5073652;28;20421;-49
2023/08/20 07:39:36;;;;;;;34.27;23.73;;;;;;;;;;5072177;28;20243;-54
2023/08/20 07:42:02;;;;;;;33.67;24.20;;;;;;;;;;5071456;28;20574;-52
2023/08/20 07:44:28;;;;;;;31.33;23.13;;;;;;;;;;5070464;28;20171;-51
2023/08/20 07:46:54;;;;;;;28.37;20.03;;;;;;;;;;5073024;28;20177;-51
2023/08/20 07:49:20;;;;;;;32.60;21.47;;;;;;;;;;5071308;28;20251;-53
2023/08/20 07:51:48;;;;;;;28.47;18.57;;;;;;;;;;5072972;28;20176;-54
2023/08/20 07:54:14;;;;;;;24.30;18.07;;;;;;;;;;5073280;28;20165;-52
2023/08/20 07:56:40;;;;;;;27.73;20.13;;;;;;;;;;5075116;28;20173;-55
2023/08/20 07:59:06;;;;;;;21.30;17.00;;;;;;;;;;5074990;28;20173;-55
2023/08/20 08:01:32;;;;;;;27.73;17.77;;;;;;;;;;5071605;28;20184;-52
2023/08/20 08:03:58;;;;;;;24.23;16.33;;;;;;;;;;5074622;28;20173;-50
2023/08/20 08:06:24;;;;;;;18.20;13.97;;;;;;;;;;5072412;28;20185;-52
2023/08/20 08:08:50;;;;;;;18.87;13.10;;;;;;;;;;5071501;28;20211;-53
2023/08/20 08:11:16;;;;;;;15.13;12.40;;;;;;;;;;5069595;28;20172;-55
2023/08/20 08:13:43;;;;;;;11.30;9.17;;;;;;;;;;5069665;28;20788;-50
2023/08/20 08:16:09;;;;;;;17.80;8.47;;;;;;;;;;5069673;28;20161;-51
2023/08/20 08:18:35;;;;;;;12.63;7.77;;;;;;;;;;5070295;28;20173;-53
2023/08/20 08:21:02;;;;;;;11.97;6.03;;;;;;;;;;5071313;28;20490;-54
2023/08/20 08:23:28;;;;;;;7.87;5.60;;;;;;;;;;5072357;28;20172;-55
2023/08/20 08:25:55;;;;;;;8.10;4.47;;;;;;;;;;5073503;28;20164;-50
2023/08/20 08:28:21;;;;;;;5.67;3.57;;;;;;;;;;5073602;28;20220;-55
2023/08/20 08:30:47;;;;;;;10.83;4.90;;;;;;;;;;5072533;28;20332;-50
2023/08/20 08:33:13;;;;;;;10.83;4.67;;;;;;;;;;5072806;28;20292;-51
2023/08/20 08:35:40;;;;;;;6.23;3.80;;;;;;;;;;5071567;28;20226;-54
2023/08/20 08:38:06;;;;;;;6.30;3.20;;;;;;;;;;5072226;28;20179;-52
2023/08/20 08:40:33;;;;;;;6.50;2.93;;;;;;;;;;5072742;28;20176;-53
2023/08/20 08:43:00;;;;;;;6.53;3.33;;;;;;;;;;5073353;28;20203;-53
2023/08/20 08:45:27;;;;;;;7.03;3.53;;;;;;;;;;5072296;28;20190;-55
2023/08/20 08:47:54;;;;;;;9.20;2.70;;;;;;;;;;5073759;28;20182;-55
2023/08/20 08:50:20;;;;;;;5.40;2.57;;;;;;;;;;5074664;28;20165;-52
2023/08/20 08:52:48;;;;;;;4.97;2.77;;;;;;;;;;5073896;28;20259;-51
2023/08/20 08:55:14;;;;;;;4.70;3.37;;;;;;;;;;5073488;28;20165;-53
2023/08/20 08:57:41;;;;;;;7.77;3.33;;;;;;;;;;5071101;28;20623;-52
2023/08/20 09:00:07;;;;;;;4.67;2.77;;;;;;;;;;5070884;28;20164;-53
2023/08/20 09:02:34;;;;;;;6.73;2.83;;;;;;;;;;5070223;28;20385;-51
2023/08/20 09:05:00;;;;;;;6.87;2.50;;;;;;;;;;5068836;28;20181;-52
2023/08/20 09:07:27;;;;;;;6.53;2.90;;;;;;;;;;5068737;28;20267;-55
2023/08/20 09:09:57;;;;;;;5.20;2.90;;;;;;;;;;5068583;28;20204;-54
2023/08/20 09:12:23;;;;;;;9.43;2.63;;;;;;;;;;5069228;28;20199;-51
2023/08/20 09:14:50;;;;;;;4.93;2.33;;;;;;;;;;5069918;28;20196;-53
2023/08/20 09:17:16;;;;;;;6.27;2.50;;;;;;;;;;5067549;28;20721;-54
2023/08/20 09:19:46;;;;;;;4.17;2.10;;;;;;;;;;5069791;28;20555;-51
2023/08/20 09:22:13;;;;;;;6.43;2.07;;;;;;;;;;5070515;28;20176;-52
2023/08/20 09:24:46;;;;;;;5.07;2.17;;;;;;;;;;5071631;28;20196;-51
2023/08/20 09:27:12;;;;;;;7.47;2.83;;;;;;;;;;5071424;28;20230;-51
2023/08/20 09:29:50;;;;;;;7.07;2.40;;;;;;;;;;5071572;28;20239;-54
2023/08/20 09:32:17;;;;;;;6.23;2.80;;;;;;;;;;5069558;28;20175;-50
2023/08/20 09:34:43;;;;;;;6.17;2.63;;;;;;;;;;5070550;28;20537;-52
2023/08/20 09:37:15;;;;;;;4.80;2.30;;;;;;;;;;5069679;28;20269;-51
2023/08/20 09:39:41;;;;;;;7.83;2.93;;;;;;;;;;5069269;28;20212;-50
2023/08/20 09:42:08;;;;;;;5.23;2.70;;;;;;;;;;5068012;28;20275;-56
2023/08/20 09:44:36;;;;;;;5.87;2.40;;;;;;;;;;5069810;28;20543;-52
2023/08/20 09:47:12;;;;;;;4.30;2.60;;;;;;;;;;5069456;28;20180;-54
2023/08/20 09:49:42;;;;;;;7.37;3.40;;;;;;;;;;5069016;28;20282;-52
2023/08/20 09:52:09;;;;;;;6.83;3.60;;;;;;;;;;5070291;28;20169;-55
2023/08/20 09:54:39;;;;;;;5.63;2.93;;;;;;;;;;5070449;28;20164;-53
2023/08/20 09:57:08;;;;;;;15.00;2.80;;;;;;;;;;5069846;28;20211;-53
2023/08/20 09:59:35;;;;;;;6.90;2.40;;;;;;;;;;5069923;28;20172;-53
2023/08/20 10:02:02;;;;;;;8.47;2.70;;;;;;;;;;5070896;28;20181;-52
2023/08/20 10:04:29;;;;;;;5.03;2.90;;;;;;;;;;5069657;28;20176;-53
2023/08/20 10:06:57;;;;;;;6.13;2.80;;;;;;;;;;5071789;28;20172;-54
2023/08/20 10:09:24;;;;;;;7.23;2.93;;;;;;;;;;5070656;28;20243;-54
2023/08/20 10:11:51;;;;;;;5.00;3.10;;;;;;;;;;5070904;28;20441;-54
2023/08/20 10:14:17;;;;;;;5.93;2.97;;;;;;;;;;5071323;28;20235;-53
2023/08/20 10:16:43;;;;;;;6.73;2.80;;;;;;;;;;5070309;28;20180;-52
2023/08/20 10:19:09;;;;;;;6.77;2.60;;;;;;;;;;5069790;28;20177;-50
2023/08/20 10:21:35;;;;;;;10.93;2.83;;;;;;;;;;5069581;28;20176;-53
2023/08/20 10:24:06;;;;;;;7.00;2.93;;;;;;;;;;5069863;28;20203;-50
2023/08/20 10:26:34;;;;;;;6.60;2.93;;;;;;;;;;5069834;28;20177;-48
2023/08/20 10:29:20;;;;;;;8.87;2.87;;;;;;;;;;5067137;28;20297;-50
2023/08/20 10:31:47;;;;;;;9.57;2.83;;;;;;;;;;5070405;28;20169;-57
2023/08/20 10:34:34;;;;;;;6.57;2.50;;;;;;;;;;5072337;28;20177;-58
2023/08/20 10:37:02;;;;;;;7.20;2.30;;;;;;;;;;5070679;28;20176;-49
2023/08/20 10:39:29;;;;;;;6.93;2.50;;;;;;;;;;5070243;28;20237;-51
2023/08/20 10:42:13;;;;;;;7.20;2.83;;;;;;;;;;5071079;28;20177;-51
2023/08/20 10:45:03;;;;;;;4.43;2.63;;;;;;;;;;5073458;28;20238;-53
2023/08/20 10:47:42;;;;;;;6.33;2.13;;;;;;;;;;5074495;28;20272;-52
2023/08/20 10:50:10;;;;;;;7.30;2.53;;;;;;;;;;5073258;28;20204;-49
2023/08/20 10:52:41;;;;;;;7.60;2.43;;;;;;;;;;5071728;28;20193;-48
2023/08/20 10:55:11;;;;;;;7.53;2.43;;;;;;;;;;5072804;28;20168;-52
2023/08/20 10:57:37;;;;;;;5.30;1.90;;;;;;;;;;5074173;28;20226;-53
2023/08/20 11:00:11;;;;;;;6.10;2.83;;;;;;;;;;5074381;28;20267;-53
2023/08/20 11:02:44;;;;;;;4.67;1.60;;;;;;;;;;5072938;28;20187;-48
2023/08/20 11:05:17;;;;;;;7.37;2.40;;;;;;;;;;5073286;28;20373;-55
2023/08/20 11:07:43;;;;;;;4.47;2.00;;;;;;;;;;5075046;28;20252;-53
2023/08/20 11:10:10;;;;;;;5.70;2.42;;;;;;;;;;5074316;28;20283;-53
2023/08/20 11:12:38;;;;;;;4.93;2.47;;;;;;;;;;5073488;28;20176;-53
2023/08/20 11:15:04;;;;;;;6.97;2.00;;;;;;;;;;5071435;28;20252;-51
2023/08/20 11:17:30;;;;;;;4.93;2.60;;;;;;;;;;5071384;28;20472;-55
2023/08/20 11:19:58;;;;;;;4.23;1.70;;;;;;;;;;5070676;28;20191;-51
2023/08/20 11:22:25;;;;;;;5.32;2.10;;;;;;;;;;5071771;28;20279;-48
2023/08/20 11:24:51;;;;;;;5.13;2.30;;;;;;;;;;5070301;28;20265;-51
2023/08/20 11:27:17;;;;;;;4.65;2.15;;;;;;;;;;5070235;28;20204;-51
2023/08/20 11:29:45;;;;;;;4.78;2.13;;;;;;;;;;5060211;28;20233;-49
2023/08/20 11:32:13;;;;;;;4.50;2.20;;;;;;;;;;5050464;28;20804;-49
2023/08/20 11:34:41;;;;;;;5.28;1.98;;;;;;;;;;5056496;28;20743;-54
2023/08/20 11:37:07;;;;;;;4.35;1.98;;;;;;;;;;5071453;28;20553;-53
2023/08/20 11:39:33;;;;;;;4.78;1.80;;;;;;;;;;5073644;28;20179;-54
2023/08/20 11:41:59;;;;;;;4.05;1.90;;;;;;;;;;5072616;28;20250;-52
2023/08/20 11:44:26;;;;;;;5.30;2.45;;;;;;;;;;5072978;28;20161;-53
2023/08/20 11:46:52;;;;;;;6.05;2.50;;;;;;;;;;5071671;28;20263;-56
2023/08/20 11:49:26;;;;;;;5.50;1.90;;;;;;;;;;5072901;28;20211;-53
2023/08/20 11:51:52;;;;;;;3.42;1.98;;;;;;;;;;5072045;28;20536;-50
2023/08/20 11:54:19;;;;;;;4.32;2.17;;;;;;;;;;5073539;28;20165;-53
2023/08/20 11:56:46;;;;;;;8.25;2.97;;;;;;;;;;5070929;28;20272;-50
2023/08/20 11:59:12;;;;;;;4.22;2.17;;;;;;;;;;5072180;28;20175;-55
2023/08/20 12:01:38;;;;;;;6.80;2.35;;;;;;;;;;5071137;28;20180;-52
2023/08/20 12:04:05;;;;;;;6.80;2.42;;;;;;;;;;5071921;28;20234;-52
2023/08/20 12:06:32;;;;;;;6.00;2.78;;;;;;;;;;5071630;28;20179;-54
2023/08/20 12:08:58;;;;;;;8.13;2.60;;;;;;;;;;5070146;28;20193;-54
2023/08/20 12:11:28;;;;;;;3.63;1.90;;;;;;;;;;5071267;28;20211;-49
2023/08/20 12:14:05;;;;;;;4.75;2.08;;;;;;;;;;5072156;28;20168;-53
2023/08/20 12:16:30;;;;;;;4.70;2.03;;;;;;;;;;5071326;28;20180;-55
2023/08/20 12:18:56;;;;;;;6.95;2.70;;;;;;;;;;5073204;28;20177;-53
2023/08/20 12:21:23;;;;;;;7.00;2.47;;;;;;;;;;5072484;28;20350;-50
2023/08/20 12:23:49;;;;;;;5.40;1.80;;;;;;;;;;5072241;28;20169;-52
2023/08/20 12:26:15;;;;;;;3.42;1.95;;;;;;;;;;5072044;28;20169;-51
2023/08/20 12:28:42;;;;;;;5.25;2.35;;;;;;;;;;5071414;28;20475;-53
2023/08/20 12:31:08;;;;;;;4.93;2.00;;;;;;;;;;5071955;28;20169;-52
2023/08/20 12:33:34;;;;;;;5.22;2.40;;;;;;;;;;5070984;28;20180;-53
2023/08/20 12:36:00;;;;;;;6.60;2.60;;;;;;;;;;5071335;28;20634;-53
2023/08/20 12:38:33;;;;;;;3.33;1.98;;;;;;;;;;5071630;28;20183;-49
2023/08/20 12:40:59;;;;;;;4.30;2.22;;;;;;;;;;5071374;28;20167;-50
2023/08/20 12:43:25;;;;;;;5.07;2.13;;;;;;;;;;5069609;28;20229;-52
2023/08/20 12:45:51;;;;;;;6.10;2.05;;;;;;;;;;5069834;28;20172;-53
2023/08/20 12:48:17;;;;;;;6.18;2.10;;;;;;;;;;5071140;28;20205;-54
2023/08/20 12:50:43;;;;;;;4.97;2.25;;;;;;;;;;5069709;28;20720;-53
2023/08/20 12:53:09;;;;;;;4.25;1.98;;;;;;;;;;5069241;28;20226;-52
2023/08/20 12:55:35;;;;;;;5.35;2.42;;;;;;;;;;5069384;28;20697;-56
2023/08/20 12:58:01;;;;;;;2.85;1.77;;;;;;;;;;5066299;28;20180;-53
2023/08/20 13:00:27;;;;;;;8.23;2.42;;;;;;;;;;5067173;28;20282;-52
2023/08/20 13:02:57;;;;;;;5.25;2.10;;;;;;;;;;5066414;28;20211;-53
2023/08/20 13:05:24;;;;;;;3.60;1.67;;;;;;;;;;5065702;28;20167;-50
2023/08/20 13:07:51;;;;;;;4.03;1.85;;;;;;;;;;5065482;28;20169;-49
2023/08/20 13:10:17;;;;;;;3.90;1.77;;;;;;;;;;5064812;28;20208;-48
2023/08/20 13:12:47;;;;;;;6.32;2.58;;;;;;;;;;5066787;28;20187;-48
2023/08/20 13:15:14;;;;;;;4.22;2.13;;;;;;;;;;5067108;28;20199;-49
2023/08/20 13:17:40;;;;;;;4.75;1.98;;;;;;;;;;5066269;28;20180;-49
2023/08/20 13:20:07;;;;;;;3.58;1.95;;;;;;;;;;5065436;28;20246;-53
2023/08/20 13:22:34;;;;;;;4.07;1.80;;;;;;;;;;5066194;28;20172;-50
2023/08/20 13:25:00;;;;;;;5.97;1.55;;;;;;;;;;5066755;28;20441;-52
2023/08/20 13:27:26;;;;;;;1.95;1.45;;;;;;;;;;5068957;28;20226;-55
2023/08/20 13:29:53;;;;;;;6.20;1.92;;;;;;;;;;5068885;28;20217;-50
2023/08/20 13:32:18;;;;;;;5.53;2.17;;;;;;;;;;5067784;28;20176;-52
2023/08/20 13:34:44;;;;;;;4.45;2.00;;;;;;;;;;5069829;28;20173;-50
2023/08/20 13:37:10;;;;;;;6.28;2.35;;;;;;;;;;5070068;28;20156;-57
2023/08/20 13:39:36;;;;;;;6.03;1.92;;;;;;;;;;5070083;28;20169;-52
2023/08/20 13:42:03;;;;;;;6.07;1.80;;;;;;;;;;5069047;28;20787;-50
2023/08/20 13:44:29;;;;;;;4.18;1.98;;;;;;;;;;5069553;28;20275;-53
2023/08/20 13:46:55;;;;;;;5.35;1.98;;;;;;;;;;5068919;28;20280;-51
2023/08/20 13:49:21;;;;;;;3.40;1.92;;;;;;;;;;5069873;28;20264;-51
2023/08/20 13:51:47;;;;;;;9.05;1.95;;;;;;;;;;5068673;28;20168;-51
2023/08/20 13:54:13;;;;;;;5.43;2.03;;;;;;;;;;5068324;28;20172;-51
2023/08/20 13:56:39;;;;;;;4.53;2.00;;;;;;;;;;5070045;28;20168;-51
2023/08/20 13:59:05;;;;;;;8.25;2.65;;;;;;;;;;5068543;28;20271;-54
2023/08/20 14:01:31;;;;;;;5.63;3.67;;;;;;;;;;5067411;28;20222;-49
2023/08/20 14:03:57;;;;;;;5.07;3.25;;;;;;;;;;5071521;28;20537;-55
2023/08/20 14:06:23;;;;;;;4.70;2.40;;;;;;;;;;5071146;28;20187;-53
2023/08/20 14:08:49;;;;;;;3.88;2.00;;;;;;;;;;5071181;28;20234;-53
2023/08/20 14:11:22;;;;;;;3.03;2.10;;;;;;;;;;5070186;28;20165;-50
2023/08/20 14:13:49;;;;;;;2.92;1.80;;;;;;;;;;5068900;28;20168;-54
2023/08/20 14:16:15;;;;;;;4.97;1.95;;;;;;;;;;5069407;28;20171;-52
2023/08/20 14:18:41;;;;;;;6.35;2.40;;;;;;;;;;5070167;28;20169;-52
2023/08/20 14:21:07;;;;;;;6.68;2.45;;;;;;;;;;5071628;28;20168;-51
2023/08/20 14:23:34;;;;;;;3.55;1.63;;;;;;;;;;5071896;28;20458;-50
2023/08/20 14:26:01;;;;;;;3.42;1.90;;;;;;;;;;5072600;28;20176;-50
2023/08/20 14:28:27;;;;;;;3.10;1.92;;;;;;;;;;5070032;28;20467;-52
2023/08/20 14:30:56;;;;;;;3.50;1.20;;;;;;;;;;5070146;28;20230;-51
2023/08/20 14:33:22;;;;;;;3.92;1.77;;;;;;;;;;5070553;28;20173;-49
2023/08/20 14:35:48;;;;;;;6.03;2.20;;;;;;;;;;5068996;28;20483;-50